Time;durP1;ratioP1;P1;durP2;ratioP2;P2;SDS_P1;SDS_P2;PMS_P1;PMS_P2;Temp;Humidity;BMP_temperature;BMP_pressure;BME280_temperature;BME280_humidity;BME280_pressure;Samples;Min_cycle;Max_cycle;Signal;HPM_P1;HPM_P2
2022/01/09 00:00:18;;;;;;;25.65;16.42;;;4.10;99.90;;;;;;4973461;28;20039;-57
2022/01/09 00:02:45;;;;;;;22.67;13.63;;;4.10;99.90;;;;;;4973301;28;20031;-56
2022/01/09 00:05:11;;;;;;;23.98;15.55;;;4.10;99.90;;;;;;4973024;28;20046;-55
2022/01/09 00:07:38;;;;;;;22.08;15.80;;;4.10;99.90;;;;;;4972527;28;20495;-57
2022/01/09 00:10:05;;;;;;;23.13;15.82;;;4.10;99.90;;;;;;4970978;28;20046;-57
2022/01/09 00:12:31;;;;;;;23.08;15.52;;;4.10;99.90;;;;;;4954535;28;20122;-56
2022/01/09 00:14:56;;;;;;;20.77;13.32;;;4.10;99.90;;;;;;4951440;28;20146;-57
2022/01/09 00:17:22;;;;;;;20.90;14.65;;;4.10;99.90;;;;;;4971644;28;20491;-57
2022/01/09 00:19:48;;;;;;;21.45;14.43;;;4.10;99.90;;;;;;4972988;28;20042;-59
2022/01/09 00:22:16;;;;;;;18.38;12.55;;;4.10;99.90;;;;;;4972131;28;20113;-57
2022/01/09 00:24:42;;;;;;;15.82;10.73;;;4.20;99.90;;;;;;4972848;28;20483;-57
2022/01/09 00:27:07;;;;;;;15.88;11.70;;;4.20;99.90;;;;;;4971584;28;20054;-58
2022/01/09 00:29:33;;;;;;;17.33;12.07;;;4.30;99.90;;;;;;4972823;28;20042;-57
2022/01/09 00:31:59;;;;;;;18.10;13.40;;;4.30;99.90;;;;;;4972061;28;20038;-57
2022/01/09 00:34:24;;;;;;;19.48;13.02;;;4.30;99.90;;;;;;4971708;28;20395;-58
2022/01/09 00:36:50;;;;;;;17.17;12.70;;;4.30;99.90;;;;;;4971910;28;20042;-57
2022/01/09 00:39:16;;;;;;;17.95;12.95;;;4.30;99.90;;;;;;4960244;28;20048;-56
2022/01/09 00:41:42;;;;;;;19.67;13.60;;;4.30;99.90;;;;;;4959516;28;20042;-56
2022/01/09 00:44:08;;;;;;;20.60;14.30;;;4.30;99.90;;;;;;4971396;28;20042;-56
2022/01/09 00:46:34;;;;;;;22.33;14.65;;;4.30;99.90;;;;;;4972574;28;20114;-58
2022/01/09 00:49:00;;;;;;;21.77;14.60;;;4.20;99.90;;;;;;4966689;28;20102;-58
2022/01/09 00:51:26;;;;;;;19.88;14.55;;;4.20;99.90;;;;;;4953348;28;20043;-56
2022/01/09 00:53:52;;;;;;;22.35;14.48;;;4.40;99.90;;;;;;4963538;28;20041;-58
2022/01/09 00:56:17;;;;;;;25.67;16.05;;;4.20;99.90;;;;;;4972276;28;20114;-58
2022/01/09 00:58:43;;;;;;;24.13;15.73;;;4.20;99.90;;;;;;4972789;28;20514;-58
2022/01/09 01:01:09;;;;;;;25.70;16.23;;;4.20;99.90;;;;;;4967830;28;20391;-57
2022/01/09 01:03:35;;;;;;;24.63;16.50;;;4.20;99.90;;;;;;4952959;28;20035;-57
2022/01/09 01:06:01;;;;;;;26.13;17.08;;;4.20;99.90;;;;;;4953374;28;20529;-57
2022/01/09 01:08:26;;;;;;;25.40;16.35;;;4.20;99.90;;;;;;4953110;28;20440;-54
2022/01/09 01:10:52;;;;;;;26.90;16.70;;;4.20;99.90;;;;;;4952872;28;20051;-58
2022/01/09 01:13:18;;;;;;;25.73;15.98;;;4.20;99.90;;;;;;4953221;28;20395;-58
2022/01/09 01:15:43;;;;;;;24.38;15.85;;;4.20;99.90;;;;;;4955626;28;20092;-56
2022/01/09 01:18:09;;;;;;;24.85;15.73;;;4.20;99.90;;;;;;4972553;28;20086;-57
2022/01/09 01:20:35;;;;;;;24.80;15.63;;;4.20;99.90;;;;;;4972557;28;20490;-58
2022/01/09 01:23:01;;;;;;;25.23;15.43;;;4.20;99.90;;;;;;4967598;28;20126;-56
2022/01/09 01:25:27;;;;;;;25.27;14.75;;;4.40;99.90;;;;;;4970799;28;20049;-57
2022/01/09 01:27:53;;;;;;;23.33;14.90;;;4.30;99.90;;;;;;4957959;28;20122;-57
2022/01/09 01:30:19;;;;;;;27.00;15.50;;;4.20;99.90;;;;;;4958521;28;20439;-57
2022/01/09 01:32:45;;;;;;;28.60;15.77;;;4.30;99.90;;;;;;4976233;28;20117;-58
2022/01/09 01:35:12;;;;;;;25.50;14.23;;;4.30;99.90;;;;;;4975438;28;20043;-58
2022/01/09 01:37:41;;;;;;;24.15;14.50;;;4.30;99.90;;;;;;4975381;28;20037;-57
2022/01/09 01:40:10;;;;;;;26.13;14.48;;;4.30;99.90;;;;;;4961227;28;20045;-57
2022/01/09 01:42:35;;;;;;;22.58;13.40;;;4.30;99.90;;;;;;4956864;28;20039;-58
2022/01/09 01:45:02;;;;;;;26.48;13.60;;;4.40;99.90;;;;;;4961810;28;20035;-58
2022/01/09 01:47:28;;;;;;;23.13;13.90;;;4.40;99.90;;;;;;4956639;28;20054;-58
2022/01/09 01:49:54;;;;;;;26.10;14.13;;;4.40;99.90;;;;;;4955962;28;20035;-55
2022/01/09 01:52:26;;;;;;;23.23;13.63;;;4.40;99.90;;;;;;4955690;28;20039;-58
2022/01/09 01:54:52;;;;;;;25.63;13.98;;;4.40;99.90;;;;;;4975103;28;20438;-57
2022/01/09 01:57:18;;;;;;;22.38;13.60;;;4.40;99.90;;;;;;4957593;28;20031;-57
2022/01/09 01:59:44;;;;;;;24.75;12.15;;;4.50;99.90;;;;;;4956163;28;20095;-57
2022/01/09 02:02:09;;;;;;;18.23;7.82;;;4.50;99.90;;;;;;4956121;28;20039;-57
2022/01/09 02:04:36;;;;;;;20.35;7.68;;;4.60;99.90;;;;;;4955985;28;20039;-57
2022/01/09 02:07:03;;;;;;;22.67;5.90;;;4.70;99.90;;;;;;4956097;28;20051;-57
2022/01/09 02:09:28;;;;;;;21.92;5.22;;;4.90;99.90;;;;;;4955993;28;20043;-57
2022/01/09 02:11:54;;;;;;;21.45;4.10;;;4.90;99.90;;;;;;4954832;28;20126;-58
2022/01/09 02:14:20;;;;;;;16.00;4.00;;;5.00;99.90;;;;;;4956028;28;20074;-59
2022/01/09 02:16:48;;;;;;;18.13;3.83;;;5.10;99.90;;;;;;4955736;28;20039;-57
2022/01/09 02:19:15;;;;;;;16.50;3.42;;;5.10;99.90;;;;;;4957146;28;20436;-56
2022/01/09 02:21:44;;;;;;;18.98;2.88;;;5.10;99.90;;;;;;4955439;28;20130;-57
2022/01/09 02:24:11;;;;;;;17.08;3.00;;;5.10;99.90;;;;;;4959224;28;20082;-57
2022/01/09 02:26:37;;;;;;;19.50;3.30;;;5.20;99.90;;;;;;4955987;28;20043;-55
2022/01/09 02:29:05;;;;;;;16.63;3.35;;;5.20;99.90;;;;;;4955285;28;20035;-58
2022/01/09 02:31:31;;;;;;;16.85;3.30;;;5.20;99.90;;;;;;4955642;28;20522;-58
2022/01/09 02:33:57;;;;;;;20.15;3.20;;;5.20;99.90;;;;;;4955019;28;20047;-58
2022/01/09 02:36:23;;;;;;;14.25;2.80;;;5.20;99.90;;;;;;4955309;28;20039;-58
2022/01/09 02:38:49;;;;;;;21.88;2.95;;;5.20;99.90;;;;;;4954754;28;20106;-58
2022/01/09 02:41:15;;;;;;;21.90;2.65;;;5.20;99.90;;;;;;4955844;28;20054;-57
2022/01/09 02:43:40;;;;;;;22.92;2.70;;;5.80;99.90;;;;;;4939074;28;20043;-58
2022/01/09 02:46:15;;;;;;;23.65;3.38;;;5.30;99.90;;;;;;4956302;28;20083;-56
2022/01/09 02:48:41;;;;;;;29.08;3.60;;;5.30;99.90;;;;;;4937796;28;20142;-58
2022/01/09 02:51:13;;;;;;;28.92;3.83;;;5.30;99.90;;;;;;4955870;28;20092;-59
2022/01/09 02:53:40;;;;;;;34.70;4.47;;;5.30;99.90;;;;;;4948242;28;20096;-59
2022/01/09 02:56:09;;;;;;;38.13;4.63;;;5.30;99.90;;;;;;4974604;28;20053;-59
2022/01/09 02:58:37;;;;;;;39.47;5.00;;;5.40;99.90;;;;;;4973900;28;20035;-59
2022/01/09 03:01:04;;;;;;;49.30;5.18;;;5.40;99.90;;;;;;4974317;28;20042;-58
2022/01/09 03:03:30;;;;;;;51.20;5.93;;;5.40;99.90;;;;;;4974113;28;20471;-58
2022/01/09 03:05:56;;;;;;;59.55;6.32;;;5.50;99.90;;;;;;4974309;28;20042;-58
2022/01/09 03:08:22;;;;;;;59.20;6.43;;;5.50;99.90;;;;;;4974462;28;20549;-58
2022/01/09 03:10:47;;;;;;;48.05;6.03;;;5.50;99.90;;;;;;4973879;28;20043;-57
2022/01/09 03:13:13;;;;;;;45.33;5.53;;;5.50;99.90;;;;;;4974295;28;20373;-57
2022/01/09 03:15:39;;;;;;;55.13;7.00;;;5.50;99.90;;;;;;4973801;28;20047;-57
2022/01/09 03:18:05;;;;;;;52.42;6.47;;;5.60;99.90;;;;;;4974109;28;20034;-57
2022/01/09 03:20:31;;;;;;;49.55;6.97;;;5.60;99.90;;;;;;4973994;28;20474;-57
2022/01/09 03:22:58;;;;;;;43.35;6.88;;;5.60;99.90;;;;;;4973058;28;20129;-57
2022/01/09 03:25:26;;;;;;;53.78;5.78;;;5.70;99.90;;;;;;4974006;28;20058;-57
2022/01/09 03:27:53;;;;;;;45.28;5.65;;;5.70;99.90;;;;;;4963349;28;20035;-57
2022/01/09 03:30:21;;;;;;;46.58;6.18;;;5.70;99.90;;;;;;4956152;28;20039;-56
2022/01/09 03:32:48;;;;;;;47.03;4.82;;;5.80;99.90;;;;;;4954132;28;20046;-57
2022/01/09 03:35:19;;;;;;;44.88;6.22;;;5.80;99.90;;;;;;4954365;28;20051;-57
2022/01/09 03:37:46;;;;;;;38.65;4.60;;;5.80;99.90;;;;;;4953909;28;20436;-57
2022/01/09 03:40:18;;;;;;;43.47;5.00;;;5.70;99.90;;;;;;4951848;28;20098;-56
2022/01/09 03:42:45;;;;;;;46.50;5.78;;;5.70;99.90;;;;;;4954348;28;20395;-58
2022/01/09 03:45:11;;;;;;;38.63;6.28;;;5.70;99.90;;;;;;4954357;28;20476;-58
2022/01/09 03:47:37;;;;;;;42.47;4.80;;;5.70;99.90;;;;;;4967337;28;20035;-57
2022/01/09 03:50:05;;;;;;;37.45;5.13;;;6.10;99.90;;;;;;4973331;28;20049;-57
2022/01/09 03:52:31;;;;;;;39.83;5.32;;;5.80;99.90;;;;;;4973247;28;20047;-58
2022/01/09 03:54:57;;;;;;;28.38;4.20;;;5.80;99.90;;;;;;4955167;28;20097;-57
2022/01/09 03:57:22;;;;;;;36.20;4.10;;;5.80;99.90;;;;;;4953785;28;20399;-57
2022/01/09 03:59:48;;;;;;;30.20;4.38;;;6.80;99.90;;;;;;4954046;28;20035;-57
2022/01/09 04:02:14;;;;;;;29.15;4.38;;;5.80;99.90;;;;;;4952574;28;20042;-56
2022/01/09 04:04:40;;;;;;;24.95;2.95;;;5.80;99.90;;;;;;4953980;28;20387;-57
2022/01/09 04:07:06;;;;;;;25.75;4.50;;;6.10;99.90;;;;;;4954122;28;20046;-56
2022/01/09 04:09:43;;;;;;;24.42;3.72;;;5.90;99.90;;;;;;4953448;28;20495;-55
2022/01/09 04:12:16;;;;;;;30.25;3.15;;;5.70;99.90;;;;;;4966936;28;20078;-57
2022/01/09 04:14:51;;;;;;;31.92;3.83;;;5.70;99.90;;;;;;4957362;28;20035;-59
2022/01/09 04:17:35;;;;;;;31.60;4.10;;;5.70;99.90;;;;;;4965454;28;20042;-60
2022/01/09 04:20:01;;;;;;;31.50;4.30;;;5.90;99.90;;;;;;4972823;28;20088;-59
2022/01/09 04:22:26;;;;;;;30.80;4.47;;;5.70;99.90;;;;;;4972348;28;20051;-57
2022/01/09 04:24:52;;;;;;;29.17;4.15;;;5.70;99.90;;;;;;4972972;28;20136;-56
2022/01/09 04:27:18;;;;;;;39.15;4.32;;;5.70;99.90;;;;;;4972956;28;20047;-58
2022/01/09 04:29:43;;;;;;;34.83;3.75;;;5.80;99.90;;;;;;4972790;28;20474;-58
2022/01/09 04:32:09;;;;;;;26.15;4.00;;;5.70;99.90;;;;;;4972587;28;20043;-59
2022/01/09 04:34:35;;;;;;;26.67;3.60;;;5.70;99.90;;;;;;4972243;28;20375;-57
2022/01/09 04:37:00;;;;;;;27.38;4.15;;;5.60;99.90;;;;;;4972128;28;20047;-57
2022/01/09 04:39:28;;;;;;;28.52;4.47;;;5.70;99.90;;;;;;4972150;28;20097;-58
2022/01/09 04:41:54;;;;;;;24.70;3.33;;;5.70;99.90;;;;;;4972528;28;20202;-58
2022/01/09 04:44:19;;;;;;;22.60;2.97;;;5.70;99.90;;;;;;4972645;28;20042;-58
2022/01/09 04:46:52;;;;;;;21.50;2.88;;;5.70;99.90;;;;;;4986813;28;20047;-59
2022/01/09 04:49:22;;;;;;;19.80;2.88;;;5.70;99.90;;;;;;4972183;28;20482;-56
2022/01/09 04:51:48;;;;;;;26.25;3.05;;;5.60;99.90;;;;;;4959650;28;20035;-58
2022/01/09 04:54:14;;;;;;;23.80;3.70;;;5.60;99.90;;;;;;4953422;28;20125;-57
2022/01/09 04:56:40;;;;;;;29.80;3.22;;;5.60;99.90;;;;;;4955949;28;20101;-57
2022/01/09 04:59:05;;;;;;;19.98;3.80;;;5.60;99.90;;;;;;4961433;28;20079;-58
2022/01/09 05:01:31;;;;;;;24.33;3.05;;;5.50;99.90;;;;;;4957568;28;20050;-57
2022/01/09 05:03:57;;;;;;;24.48;2.88;;;5.50;99.90;;;;;;4956696;28;20039;-57
2022/01/09 05:06:24;;;;;;;27.48;2.95;;;5.50;99.90;;;;;;4959273;28;20075;-57
2022/01/09 05:08:50;;;;;;;25.70;2.92;;;5.50;99.90;;;;;;4956092;28;20571;-58
2022/01/09 05:11:15;;;;;;;21.83;2.88;;;5.50;99.90;;;;;;4953148;28;20032;-57
2022/01/09 05:13:41;;;;;;;24.80;3.35;;;5.50;99.90;;;;;;4957314;28;20550;-58
2022/01/09 05:16:07;;;;;;;22.95;2.83;;;5.40;99.90;;;;;;4952989;28;20078;-59
2022/01/09 05:18:41;;;;;;;24.95;2.88;;;5.40;99.90;;;;;;4962473;28;20402;-57
2022/01/09 05:21:07;;;;;;;18.52;2.42;;;5.40;99.90;;;;;;4955558;28;20506;-57
2022/01/09 05:23:33;;;;;;;20.73;2.90;;;5.40;99.90;;;;;;4952115;28;20411;-57
2022/01/09 05:25:59;;;;;;;16.58;2.28;;;5.40;99.90;;;;;;4952279;28;20039;-57
2022/01/09 05:28:25;;;;;;;18.95;2.35;;;5.30;99.90;;;;;;4953014;28;20043;-59
2022/01/09 05:30:50;;;;;;;23.67;2.55;;;5.40;99.90;;;;;;4953001;28;20065;-56
2022/01/09 05:33:16;;;;;;;14.98;2.78;;;5.40;99.90;;;;;;4952910;28;20047;-56
2022/01/09 05:35:41;;;;;;;12.07;2.00;;;5.30;99.90;;;;;;4952650;28;20047;-57
2022/01/09 05:38:07;;;;;;;11.25;2.10;;;5.30;99.90;;;;;;4954578;28;20035;-57
2022/01/09 05:40:33;;;;;;;20.08;2.45;;;5.30;99.90;;;;;;4971991;28;20375;-57
2022/01/09 05:42:58;;;;;;;17.75;1.98;;;5.30;99.90;;;;;;4964603;28;20034;-58
2022/01/09 05:45:24;;;;;;;15.85;2.05;;;5.30;99.90;;;;;;4969357;28;20090;-57
2022/01/09 05:47:50;;;;;;;14.77;1.92;;;5.30;99.90;;;;;;4954338;28;20044;-57
2022/01/09 05:50:15;;;;;;;15.57;1.80;;;5.30;99.90;;;;;;4952605;28;20035;-58
2022/01/09 05:52:41;;;;;;;10.23;1.73;;;5.30;99.90;;;;;;4951628;28;20031;-58
2022/01/09 05:55:07;;;;;;;16.88;1.83;;;5.80;99.90;;;;;;4971489;28;20125;-58
2022/01/09 05:57:33;;;;;;;9.07;1.60;;;5.20;99.90;;;;;;4955867;28;20038;-57
2022/01/09 05:59:59;;;;;;;17.55;2.58;;;5.20;99.90;;;;;;4952550;28;20042;-57
2022/01/09 06:02:25;;;;;;;11.75;2.03;;;5.20;99.90;;;;;;4952365;28;20380;-57
2022/01/09 06:04:50;;;;;;;12.25;1.88;;;5.20;99.90;;;;;;4952575;28;20099;-58
2022/01/09 06:07:16;;;;;;;14.25;1.90;;;5.40;99.90;;;;;;4952681;28;20047;-58
2022/01/09 06:09:42;;;;;;;12.27;1.75;;;5.10;99.90;;;;;;4953231;28;20707;-58
2022/01/09 06:12:08;;;;;;;12.40;1.90;;;5.10;99.90;;;;;;4974135;28;20046;-58
2022/01/09 06:14:34;;;;;;;9.52;1.60;;;5.00;99.90;;;;;;4974182;28;20054;-57
2022/01/09 06:17:00;;;;;;;11.48;1.70;;;5.00;99.90;;;;;;4974935;28;20406;-57
2022/01/09 06:19:25;;;;;;;13.50;1.92;;;5.00;99.90;;;;;;4975322;28;20078;-58
2022/01/09 06:21:51;;;;;;;8.75;1.67;;;5.00;99.90;;;;;;4965341;28;20039;-57
2022/01/09 06:24:16;;;;;;;11.65;1.83;;;4.90;99.90;;;;;;4955298;28;20055;-58
2022/01/09 06:26:42;;;;;;;17.88;2.17;;;4.90;99.90;;;;;;4956832;28;20047;-58
2022/01/09 06:29:08;;;;;;;18.83;2.55;;;4.90;99.90;;;;;;4958494;28;20039;-58
2022/01/09 06:31:33;;;;;;;10.23;2.08;;;4.90;99.90;;;;;;4961329;28;20069;-59
2022/01/09 06:33:59;;;;;;;18.30;2.40;;;4.90;99.90;;;;;;4955321;28;20620;-58
2022/01/09 06:36:25;;;;;;;18.58;2.65;;;5.00;99.90;;;;;;4956304;28;20039;-59
2022/01/09 06:38:50;;;;;;;15.25;2.15;;;5.00;99.90;;;;;;4959469;28;20434;-59
2022/01/09 06:41:16;;;;;;;18.33;1.85;;;5.00;99.90;;;;;;4974752;28;20736;-59
2022/01/09 06:43:44;;;;;;;13.40;1.92;;;5.00;99.90;;;;;;4956942;28;20723;-57
2022/01/09 06:46:10;;;;;;;14.88;2.25;;;5.00;99.90;;;;;;4965914;28;20102;-56
2022/01/09 06:48:35;;;;;;;15.32;2.30;;;5.10;99.90;;;;;;4941369;28;20054;-55
2022/01/09 06:51:01;;;;;;;17.02;2.60;;;4.90;99.90;;;;;;4957028;28;20039;-56
2022/01/09 06:53:27;;;;;;;15.55;2.38;;;4.80;99.90;;;;;;4974036;28;20053;-57
2022/01/09 06:55:52;;;;;;;15.40;2.00;;;4.80;99.90;;;;;;4967109;28;20442;-60
2022/01/09 06:58:21;;;;;;;12.23;2.10;;;4.70;99.90;;;;;;4954695;28;20566;-57
2022/01/09 07:00:47;;;;;;;14.18;1.98;;;4.70;99.90;;;;;;4964623;28;20439;-57
2022/01/09 07:03:13;;;;;;;12.68;1.90;;;4.70;99.90;;;;;;4954847;28;20102;-56
2022/01/09 07:05:39;;;;;;;15.25;2.22;;;4.70;99.90;;;;;;4966921;28;20045;-56
2022/01/09 07:08:05;;;;;;;12.05;2.05;;;4.60;99.90;;;;;;4955215;28;20039;-58
2022/01/09 07:10:31;;;;;;;11.43;1.90;;;4.70;99.90;;;;;;4937533;28;20055;-58
2022/01/09 07:12:57;;;;;;;13.25;2.20;;;4.70;99.90;;;;;;4955275;28;20047;-58
2022/01/09 07:15:23;;;;;;;10.55;1.80;;;4.70;99.90;;;;;;4955698;28;20130;-59
2022/01/09 07:17:48;;;;;;;19.60;2.13;;;4.70;99.90;;;;;;4955661;28;20118;-57
2022/01/09 07:20:14;;;;;;;10.50;1.98;;;4.60;99.90;;;;;;4969438;28;20531;-57
2022/01/09 07:22:40;;;;;;;17.08;2.13;;;4.70;99.90;;;;;;4972505;28;20406;-59
2022/01/09 07:25:06;;;;;;;13.23;2.22;;;4.70;99.90;;;;;;4962036;28;20043;-57
2022/01/09 07:27:35;;;;;;;11.43;2.03;;;4.70;99.90;;;;;;4955885;28;20486;-58
2022/01/09 07:30:01;;;;;;;11.48;2.30;;;4.70;99.90;;;;;;4954199;28;20046;-58
2022/01/09 07:32:28;;;;;;;13.80;1.85;;;4.70;99.90;;;;;;4954124;28;20125;-58
2022/01/09 07:34:57;;;;;;;10.75;1.67;;;4.70;99.90;;;;;;4954109;28;20039;-57
2022/01/09 07:37:22;;;;;;;9.30;1.80;;;4.70;99.90;;;;;;4958373;28;20984;-57
2022/01/09 07:39:50;;;;;;;13.13;1.90;;;4.70;99.90;;;;;;4971516;28;20462;-57
2022/01/09 07:42:15;;;;;;;14.80;2.00;;;4.70;99.90;;;;;;4960792;28;20158;-58
2022/01/09 07:44:41;;;;;;;15.20;2.10;;;4.70;99.90;;;;;;4966436;28;20117;-57
2022/01/09 07:47:07;;;;;;;14.20;1.90;;;4.70;99.90;;;;;;4954395;28;20043;-58
2022/01/09 07:49:32;;;;;;;8.68;1.70;;;4.70;99.90;;;;;;4956208;28;20117;-58
2022/01/09 07:51:58;;;;;;;13.48;1.70;;;4.70;99.90;;;;;;4969629;28;20491;-58
2022/01/09 07:54:24;;;;;;;11.48;1.77;;;4.60;99.90;;;;;;4962258;28;20047;-57
2022/01/09 07:56:49;;;;;;;16.08;2.00;;;4.70;99.90;;;;;;4973040;28;20054;-58
2022/01/09 07:59:16;;;;;;;13.70;1.70;;;4.70;99.90;;;;;;4964812;28;20079;-58
2022/01/09 08:01:41;;;;;;;14.63;1.80;;;4.60;99.90;;;;;;4969943;28;20494;-59
2022/01/09 08:04:07;;;;;;;10.43;2.05;;;4.60;99.90;;;;;;4966048;28;20030;-58
2022/01/09 08:06:33;;;;;;;12.18;1.92;;;4.60;99.90;;;;;;4972847;28;20050;-57
2022/01/09 08:08:59;;;;;;;19.90;2.20;;;4.60;99.90;;;;;;4972851;28;20109;-58
2022/01/09 08:11:25;;;;;;;12.38;1.90;;;4.60;99.90;;;;;;4973307;28;20043;-57
2022/01/09 08:13:50;;;;;;;11.70;1.80;;;4.60;99.90;;;;;;4965581;28;20416;-56
2022/01/09 08:16:16;;;;;;;9.95;1.75;;;4.60;99.90;;;;;;4961785;28;20046;-57
2022/01/09 08:18:42;;;;;;;11.13;2.03;;;4.60;99.90;;;;;;4959828;28;20039;-58
2022/01/09 08:21:07;;;;;;;12.48;1.77;;;4.60;99.90;;;;;;4953842;28;20049;-57
2022/01/09 08:23:33;;;;;;;15.48;2.10;;;4.60;99.90;;;;;;4951814;28;20058;-57
2022/01/09 08:25:59;;;;;;;17.40;1.75;;;4.60;99.90;;;;;;4954201;28;20131;-58
2022/01/09 08:28:24;;;;;;;17.17;2.20;;;4.50;99.90;;;;;;4954418;28;20509;-59
2022/01/09 08:30:50;;;;;;;20.67;2.55;;;4.50;99.90;;;;;;4957881;28;20039;-59
2022/01/09 08:33:16;;;;;;;14.18;2.47;;;4.50;99.90;;;;;;4955877;28;20562;-58
2022/01/09 08:35:41;;;;;;;13.60;2.10;;;4.50;99.90;;;;;;4954033;28;20038;-58
2022/01/09 08:38:07;;;;;;;17.95;3.10;;;4.60;99.90;;;;;;4957467;28;20109;-58
2022/01/09 08:40:33;;;;;;;16.35;2.90;;;4.50;99.90;;;;;;4955385;28;20023;-58
2022/01/09 08:42:58;;;;;;;20.63;2.83;;;4.60;99.90;;;;;;4957965;28;20034;-57
2022/01/09 08:45:24;;;;;;;28.73;3.63;;;4.70;99.90;;;;;;4955791;28;20027;-58
2022/01/09 08:47:50;;;;;;;19.75;2.70;;;4.50;99.90;;;;;;4940087;28;20478;-59
2022/01/09 08:50:18;;;;;;;18.95;2.70;;;4.60;99.90;;;;;;4960376;28;20101;-57
2022/01/09 08:52:45;;;;;;;17.50;2.30;;;4.60;99.90;;;;;;4960406;28;20042;-58
2022/01/09 08:55:10;;;;;;;21.80;2.95;;;4.60;99.90;;;;;;4962157;28;20062;-57
2022/01/09 08:57:36;;;;;;;19.70;2.53;;;4.50;99.90;;;;;;4960019;28;20043;-58
2022/01/09 09:00:04;;;;;;;23.25;2.90;;;4.50;99.90;;;;;;4928829;28;20035;-58
2022/01/09 09:02:30;;;;;;;20.92;3.40;;;4.50;99.90;;;;;;4959317;28;20058;-58
2022/01/09 09:04:55;;;;;;;17.73;3.00;;;4.50;99.90;;;;;;4962404;28;20362;-58
2022/01/09 09:07:24;;;;;;;21.70;2.60;;;4.50;99.90;;;;;;4962633;28;20054;-56
2022/01/09 09:09:53;;;;;;;19.25;3.05;;;4.50;99.90;;;;;;4956995;28;20043;-56
2022/01/09 09:12:20;;;;;;;23.85;2.55;;;4.50;99.90;;;;;;4961229;28;20073;-57
2022/01/09 09:14:49;;;;;;;23.90;3.30;;;4.50;99.90;;;;;;4961401;28;20050;-56
2022/01/09 09:17:15;;;;;;;21.15;3.15;;;4.50;99.90;;;;;;4958149;28;20035;-59
2022/01/09 09:19:41;;;;;;;23.85;2.80;;;4.50;99.90;;;;;;4961464;28;20065;-59
2022/01/09 09:22:07;;;;;;;20.15;2.78;;;4.50;99.90;;;;;;4962314;28;20824;-59
2022/01/09 09:24:32;;;;;;;26.58;3.30;;;4.50;99.90;;;;;;4962605;28;22522;-58
2022/01/09 09:26:58;;;;;;;15.82;2.78;;;4.50;99.90;;;;;;4961750;28;23759;-59
2022/01/09 09:29:24;;;;;;;22.33;2.58;;;4.50;99.90;;;;;;4962453;28;20049;-58
2022/01/09 09:31:49;;;;;;;16.30;2.80;;;4.50;99.90;;;;;;4963511;28;20110;-57
2022/01/09 09:34:15;;;;;;;14.80;2.70;;;4.50;99.90;;;;;;4961070;28;20043;-58
2022/01/09 09:36:41;;;;;;;19.08;2.42;;;4.50;99.90;;;;;;4961923;28;20177;-59
2022/01/09 09:39:08;;;;;;;15.45;2.72;;;4.60;99.90;;;;;;4964728;28;20090;-56
2022/01/09 09:41:34;;;;;;;20.60;2.55;;;4.60;99.90;;;;;;4960483;28;20035;-57
2022/01/09 09:44:01;;;;;;;21.00;3.20;;;4.60;99.90;;;;;;4961604;28;20038;-59
2022/01/09 09:46:27;;;;;;;20.60;2.92;;;4.60;99.90;;;;;;4964436;28;20081;-59
2022/01/09 09:48:54;;;;;;;16.80;2.65;;;4.70;99.90;;;;;;4966294;28;20042;-58
2022/01/09 09:51:24;;;;;;;17.98;2.75;;;4.80;99.90;;;;;;4964803;28;20168;-59
2022/01/09 09:53:50;;;;;;;19.65;2.78;;;4.80;99.90;;;;;;4965893;28;20058;-59
2022/01/09 09:56:16;;;;;;;13.32;2.70;;;4.90;99.90;;;;;;4964726;28;20098;-57
2022/01/09 09:58:42;;;;;;;20.88;2.83;;;4.90;99.90;;;;;;4958654;28;20652;-58
2022/01/09 10:01:22;;;;;;;18.10;3.13;;;4.90;99.90;;;;;;4962697;28;20034;-58
2022/01/09 10:03:54;;;;;;;18.13;3.03;;;4.90;99.90;;;;;;4964438;28;20035;-57
2022/01/09 10:06:53;;;;;;;15.38;2.35;;;5.00;99.90;;;;;;4966339;28;20426;-57
2022/01/09 10:09:21;;;;;;;16.83;2.63;;;5.10;99.90;;;;;;4938965;28;20055;-57
2022/01/09 10:12:04;;;;;;;17.08;2.83;;;5.10;99.90;;;;;;4966530;28;20546;-57
2022/01/09 10:14:33;;;;;;;21.02;2.50;;;5.10;99.90;;;;;;4965901;28;20066;-58
2022/01/09 10:17:17;;;;;;;15.15;2.28;;;5.20;99.90;;;;;;4964308;28;20054;-57
2022/01/09 10:20:03;;;;;;;18.30;3.13;;;5.20;99.90;;;;;;4964383;28;20049;-56
2022/01/09 10:22:41;;;;;;;25.23;2.90;;;5.30;99.90;;;;;;4966824;28;20066;-57
2022/01/09 10:25:22;;;;;;;21.10;2.15;;;5.40;99.90;;;;;;4967235;28;20051;-57
2022/01/09 10:27:56;;;;;;;16.00;2.60;;;5.50;99.90;;;;;;4965729;28;20057;-57
2022/01/09 10:30:26;;;;;;;14.05;2.25;;;5.70;99.90;;;;;;4963783;28;20129;-57
2022/01/09 10:32:57;;;;;;;15.95;3.00;;;5.80;99.90;;;;;;4965696;28;20042;-58
2022/01/09 10:35:23;;;;;;;17.17;2.90;;;6.00;99.90;;;;;;4964440;28;20054;-57
2022/01/09 10:38:01;;;;;;;14.88;2.30;;;6.00;99.90;;;;;;4965222;28;20042;-58
2022/01/09 10:40:29;;;;;;;17.23;2.53;;;6.00;99.90;;;;;;4965245;28;20023;-58
2022/01/09 10:43:02;;;;;;;13.95;2.40;;;6.00;99.90;;;;;;4967606;28;20051;-58
2022/01/09 10:45:28;;;;;;;19.55;2.40;;;6.30;99.90;;;;;;4965112;28;20127;-57
2022/01/09 10:48:05;;;;;;;21.23;2.65;;;6.20;99.90;;;;;;4966582;28;20119;-57
2022/01/09 10:50:34;;;;;;;19.48;2.38;;;6.00;99.90;;;;;;4965327;28;20042;-57
2022/01/09 10:53:12;;;;;;;11.15;2.60;;;5.90;99.90;;;;;;4964677;28;20184;-58
2022/01/09 10:55:38;;;;;;;18.45;2.42;;;6.00;99.90;;;;;;4964173;28;20097;-57
2022/01/09 10:58:56;;;;;;;17.40;2.45;;;5.70;99.90;;;;;;4961146;28;20054;-57
2022/01/09 11:01:25;;;;;;;17.30;2.30;;;5.80;99.90;;;;;;4938651;28;20039;-57
2022/01/09 11:04:06;;;;;;;11.35;2.28;;;6.50;99.90;;;;;;4963069;28;20066;-58
2022/01/09 11:06:34;;;;;;;14.88;2.47;;;6.40;99.90;;;;;;4960389;28;20058;-55
2022/01/09 11:09:02;;;;;;;19.73;2.60;;;6.60;99.90;;;;;;4963402;28;20397;-57
2022/01/09 11:11:34;;;;;;;18.13;2.53;;;6.50;99.90;;;;;;4962763;28;20038;-57
2022/01/09 11:14:04;;;;;;;13.52;2.55;;;6.60;99.90;;;;;;4963494;28;20105;-58
2022/01/09 11:16:37;;;;;;;15.32;3.28;;;6.60;99.90;;;;;;4964024;28;20051;-57
2022/01/09 11:19:17;;;;;;;16.23;2.50;;;6.60;99.90;;;;;;4962907;28;20039;-58
2022/01/09 11:21:49;;;;;;;15.52;2.28;;;6.60;99.90;;;;;;4965285;28;20054;-57
2022/01/09 11:24:29;;;;;;;15.60;2.20;;;6.70;99.90;;;;;;4965407;28;20054;-57
2022/01/09 11:27:19;;;;;;;16.63;2.60;;;6.60;99.90;;;;;;4966688;28;20054;-57
2022/01/09 11:30:03;;;;;;;17.20;2.42;;;6.60;99.90;;;;;;4963737;28;20101;-58
2022/01/09 11:33:03;;;;;;;13.75;2.58;;;6.60;99.90;;;;;;4964758;28;20042;-58
2022/01/09 11:35:48;;;;;;;15.65;2.58;;;6.70;99.90;;;;;;4965323;28;20045;-57
2022/01/09 11:38:16;;;;;;;;;;;7.10;99.90;;;;;;4965726;28;20097;-57
2022/01/09 11:40:42;;;;;;;11.63;2.30;;;7.40;99.90;;;;;;4963235;28;19914;-57
2022/01/09 11:43:14;;;;;;;17.45;2.38;;;7.60;99.90;;;;;;4963579;28;20105;-58
2022/01/09 11:45:48;;;;;;;15.77;2.67;;;7.80;99.90;;;;;;4963113;28;20421;-58
2022/01/09 11:48:16;;;;;;;11.18;2.40;;;7.80;99.90;;;;;;4961878;28;20039;-57
2022/01/09 11:51:07;;;;;;;12.52;2.15;;;7.90;99.90;;;;;;4964806;28;20039;-58
2022/01/09 11:53:54;;;;;;;13.85;2.15;;;7.90;99.90;;;;;;4964409;28;20560;-58
2022/01/09 11:56:45;;;;;;;14.88;2.55;;;7.80;99.90;;;;;;4961968;28;20074;-57
2022/01/09 11:59:45;;;;;;;19.30;2.50;;;7.80;99.90;;;;;;4962571;28;20073;-59
2022/01/09 12:02:17;;;;;;;15.48;2.17;;;7.90;99.90;;;;;;4960210;28;20138;-59
2022/01/09 12:04:43;;;;;;;12.20;2.08;;;8.00;99.90;;;;;;4959325;28;20046;-58
2022/01/09 12:07:42;;;;;;;14.90;1.85;;;8.10;99.90;;;;;;4957286;28;20406;-58
2022/01/09 12:10:30;;;;;;;13.07;2.05;;;8.30;99.90;;;;;;4959244;28;20176;-57
2022/01/09 12:12:57;;;;;;;14.38;1.95;;;8.40;99.90;;;;;;4944132;28;20051;-58
2022/01/09 12:15:35;;;;;;;10.13;2.10;;;8.50;99.90;;;;;;4961845;28;20051;-58
2022/01/09 12:18:03;;;;;;;16.63;2.00;;;8.60;99.90;;;;;;4963250;28;20069;-57
2022/01/09 12:20:32;;;;;;;14.00;2.47;;;8.70;99.90;;;;;;4962987;28;20438;-58
2022/01/09 12:23:02;;;;;;;12.77;2.78;;;8.70;99.90;;;;;;4945092;28;20527;-57
2022/01/09 12:25:31;;;;;;;12.52;2.20;;;8.60;99.90;;;;;;4961230;28;20062;-58
2022/01/09 12:28:03;;;;;;;17.85;2.70;;;8.30;99.90;;;;;;4961670;28;20416;-57
2022/01/09 12:30:40;;;;;;;12.63;2.05;;;8.20;99.90;;;;;;4963573;28;20049;-57
2022/01/09 12:33:09;;;;;;;18.95;2.22;;;8.20;99.90;;;;;;4963058;28;20114;-58
2022/01/09 12:35:39;;;;;;;14.23;1.70;;;8.10;99.90;;;;;;4962800;28;20403;-58
2022/01/09 12:38:05;;;;;;;15.02;2.20;;;8.10;99.90;;;;;;4960204;28;20042;-60
2022/01/09 12:40:33;;;;;;;15.30;2.55;;;8.30;99.90;;;;;;4962045;28;20514;-59
2022/01/09 12:43:00;;;;;;;16.15;2.70;;;8.20;99.90;;;;;;4962636;28;20035;-58
2022/01/09 12:45:27;;;;;;;12.18;1.90;;;8.10;99.90;;;;;;4959052;28;20085;-59
2022/01/09 12:47:55;;;;;;;13.63;2.25;;;8.10;99.90;;;;;;4960279;28;20030;-57
2022/01/09 12:50:28;;;;;;;13.57;2.55;;;8.20;99.90;;;;;;4957569;28;20105;-57